sensor_id;sensor_type;location;lat;lon;timestamp;P1;durP1;ratioP1;P2;durP2;ratioP2
65045;SDS011;54657;52.022;5.534;2024-03-08T00:02:13;27.30;;;12.95;;
65045;SDS011;54657;52.022;5.534;2024-03-08T00:04:39;25.50;;;13.57;;
65045;SDS011;54657;52.022;5.534;2024-03-08T00:07:05;20.92;;;12.40;;
65045;SDS011;54657;52.022;5.534;2024-03-08T00:09:31;21.40;;;13.02;;
65045;SDS011;54657;52.022;5.534;2024-03-08T00:11:57;25.45;;;13.55;;
65045;SDS011;54657;52.022;5.534;2024-03-08T00:14:23;24.33;;;13.30;;
65045;SDS011;54657;52.022;5.534;2024-03-08T00:16:48;22.83;;;12.70;;
65045;SDS011;54657;52.022;5.534;2024-03-08T00:19:14;20.33;;;13.00;;
65045;SDS011;54657;52.022;5.534;2024-03-08T00:21:39;23.70;;;13.63;;
65045;SDS011;54657;52.022;5.534;2024-03-08T00:24:06;21.85;;;13.93;;
65045;SDS011;54657;52.022;5.534;2024-03-08T00:26:32;27.20;;;12.93;;
65045;SDS011;54657;52.022;5.534;2024-03-08T00:28:58;23.95;;;13.07;;
65045;SDS011;54657;52.022;5.534;2024-03-08T00:31:23;20.85;;;13.30;;
65045;SDS011;54657;52.022;5.534;2024-03-08T00:33:50;23.95;;;12.65;;
65045;SDS011;54657;52.022;5.534;2024-03-08T00:36:16;24.95;;;12.98;;
65045;SDS011;54657;52.022;5.534;2024-03-08T00:38:41;20.92;;;12.25;;
65045;SDS011;54657;52.022;5.534;2024-03-08T00:41:07;23.38;;;13.02;;
65045;SDS011;54657;52.022;5.534;2024-03-08T00:43:33;22.55;;;13.70;;
65045;SDS011;54657;52.022;5.534;2024-03-08T00:45:59;23.40;;;12.60;;
65045;SDS011;54657;52.022;5.534;2024-03-08T00:48:26;23.23;;;13.80;;
65045;SDS011;54657;52.022;5.534;2024-03-08T00:50:51;21.10;;;12.10;;
65045;SDS011;54657;52.022;5.534;2024-03-08T00:53:17;22.17;;;13.18;;
65045;SDS011;54657;52.022;5.534;2024-03-08T00:55:43;23.55;;;12.70;;
65045;SDS011;54657;52.022;5.534;2024-03-08T00:58:11;23.77;;;13.43;;
65045;SDS011;54657;52.022;5.534;2024-03-08T01:00:37;22.27;;;12.88;;
65045;SDS011;54657;52.022;5.534;2024-03-08T01:03:03;24.80;;;12.65;;
65045;SDS011;54657;52.022;5.534;2024-03-08T01:05:29;23.48;;;12.50;;
65045;SDS011;54657;52.022;5.534;2024-03-08T01:07:55;24.42;;;13.27;;
65045;SDS011;54657;52.022;5.534;2024-03-08T01:10:20;21.23;;;12.68;;
65045;SDS011;54657;52.022;5.534;2024-03-08T01:12:46;22.23;;;13.18;;
65045;SDS011;54657;52.022;5.534;2024-03-08T01:15:12;21.33;;;12.95;;
65045;SDS011;54657;52.022;5.534;2024-03-08T01:17:37;23.33;;;12.70;;
65045;SDS011;54657;52.022;5.534;2024-03-08T01:20:04;25.75;;;13.68;;
65045;SDS011;54657;52.022;5.534;2024-03-08T01:22:30;25.10;;;13.77;;
65045;SDS011;54657;52.022;5.534;2024-03-08T01:24:56;25.17;;;12.95;;
65045;SDS011;54657;52.022;5.534;2024-03-08T01:27:22;22.73;;;13.75;;
65045;SDS011;54657;52.022;5.534;2024-03-08T01:29:47;22.88;;;13.00;;
65045;SDS011;54657;52.022;5.534;2024-03-08T01:32:13;22.52;;;12.63;;
65045;SDS011;54657;52.022;5.534;2024-03-08T01:34:39;25.38;;;13.77;;
65045;SDS011;54657;52.022;5.534;2024-03-08T01:37:05;25.00;;;13.30;;
65045;SDS011;54657;52.022;5.534;2024-03-08T01:39:31;23.50;;;12.65;;
65045;SDS011;54657;52.022;5.534;2024-03-08T01:41:57;20.42;;;12.57;;
65045;SDS011;54657;52.022;5.534;2024-03-08T01:44:23;23.40;;;13.23;;
65045;SDS011;54657;52.022;5.534;2024-03-08T01:46:49;21.38;;;12.88;;
65045;SDS011;54657;52.022;5.534;2024-03-08T01:49:16;22.83;;;13.10;;
65045;SDS011;54657;52.022;5.534;2024-03-08T01:51:43;23.30;;;13.82;;
65045;SDS011;54657;52.022;5.534;2024-03-08T01:54:08;21.33;;;12.75;;
65045;SDS011;54657;52.022;5.534;2024-03-08T01:56:35;20.55;;;12.45;;
65045;SDS011;54657;52.022;5.534;2024-03-08T01:59:02;21.35;;;13.27;;
65045;SDS011;54657;52.022;5.534;2024-03-08T02:01:29;23.35;;;12.88;;
65045;SDS011;54657;52.022;5.534;2024-03-08T02:03:55;24.20;;;14.10;;
65045;SDS011;54657;52.022;5.534;2024-03-08T02:06:20;20.52;;;12.73;;
65045;SDS011;54657;52.022;5.534;2024-03-08T02:08:46;23.55;;;13.48;;
65045;SDS011;54657;52.022;5.534;2024-03-08T02:11:12;23.88;;;13.85;;
65045;SDS011;54657;52.022;5.534;2024-03-08T02:13:38;22.10;;;13.10;;
65045;SDS011;54657;52.022;5.534;2024-03-08T02:16:03;21.63;;;13.13;;
65045;SDS011;54657;52.022;5.534;2024-03-08T02:18:33;21.08;;;12.82;;
65045;SDS011;54657;52.022;5.534;2024-03-08T02:20:59;22.48;;;13.32;;
65045;SDS011;54657;52.022;5.534;2024-03-08T02:23:27;24.20;;;13.98;;
65045;SDS011;54657;52.022;5.534;2024-03-08T02:25:53;23.75;;;12.60;;
65045;SDS011;54657;52.022;5.534;2024-03-08T02:28:21;20.40;;;12.80;;
65045;SDS011;54657;52.022;5.534;2024-03-08T02:30:47;19.25;;;12.10;;
65045;SDS011;54657;52.022;5.534;2024-03-08T02:33:16;24.55;;;13.45;;
65045;SDS011;54657;52.022;5.534;2024-03-08T02:35:43;25.30;;;13.45;;
65045;SDS011;54657;52.022;5.534;2024-03-08T02:38:12;18.35;;;13.07;;
65045;SDS011;54657;52.022;5.534;2024-03-08T02:40:42;20.38;;;12.52;;
65045;SDS011;54657;52.022;5.534;2024-03-08T02:43:08;21.20;;;13.60;;
65045;SDS011;54657;52.022;5.534;2024-03-08T02:45:34;19.90;;;12.85;;
65045;SDS011;54657;52.022;5.534;2024-03-08T02:48:00;24.52;;;13.35;;
65045;SDS011;54657;52.022;5.534;2024-03-08T02:50:26;22.80;;;14.13;;
65045;SDS011;54657;52.022;5.534;2024-03-08T02:52:51;22.67;;;13.88;;
65045;SDS011;54657;52.022;5.534;2024-03-08T02:55:17;20.42;;;12.90;;
65045;SDS011;54657;52.022;5.534;2024-03-08T02:57:42;21.13;;;13.63;;
65045;SDS011;54657;52.022;5.534;2024-03-08T03:00:08;21.05;;;13.73;;
65045;SDS011;54657;52.022;5.534;2024-03-08T03:02:35;23.33;;;14.00;;
65045;SDS011;54657;52.022;5.534;2024-03-08T03:05:01;23.13;;;14.23;;
65045;SDS011;54657;52.022;5.534;2024-03-08T03:07:33;18.67;;;13.23;;
65045;SDS011;54657;52.022;5.534;2024-03-08T03:09:59;20.02;;;12.55;;
65045;SDS011;54657;52.022;5.534;2024-03-08T03:12:26;21.60;;;13.25;;
65045;SDS011;54657;52.022;5.534;2024-03-08T03:14:55;24.05;;;14.57;;
65045;SDS011;54657;52.022;5.534;2024-03-08T03:17:21;22.92;;;13.50;;
65045;SDS011;54657;52.022;5.534;2024-03-08T03:19:47;20.80;;;13.20;;
65045;SDS011;54657;52.022;5.534;2024-03-08T03:22:13;19.17;;;13.82;;
65045;SDS011;54657;52.022;5.534;2024-03-08T03:24:40;22.63;;;14.02;;
65045;SDS011;54657;52.022;5.534;2024-03-08T03:27:07;18.73;;;13.02;;
65045;SDS011;54657;52.022;5.534;2024-03-08T03:29:42;21.90;;;12.82;;
65045;SDS011;54657;52.022;5.534;2024-03-08T03:32:11;21.73;;;13.40;;
65045;SDS011;54657;52.022;5.534;2024-03-08T03:34:37;22.42;;;14.73;;
65045;SDS011;54657;52.022;5.534;2024-03-08T03:37:03;22.50;;;14.48;;
65045;SDS011;54657;52.022;5.534;2024-03-08T03:39:30;19.95;;;12.93;;
65045;SDS011;54657;52.022;5.534;2024-03-08T03:42:13;20.48;;;13.27;;
65045;SDS011;54657;52.022;5.534;2024-03-08T03:44:39;19.65;;;12.88;;
65045;SDS011;54657;52.022;5.534;2024-03-08T03:47:05;20.58;;;13.77;;
65045;SDS011;54657;52.022;5.534;2024-03-08T03:49:32;23.20;;;14.32;;
65045;SDS011;54657;52.022;5.534;2024-03-08T03:51:58;23.83;;;12.95;;
65045;SDS011;54657;52.022;5.534;2024-03-08T03:54:23;17.80;;;12.90;;
65045;SDS011;54657;52.022;5.534;2024-03-08T03:56:49;20.08;;;13.70;;
65045;SDS011;54657;52.022;5.534;2024-03-08T03:59:17;20.40;;;13.32;;
65045;SDS011;54657;52.022;5.534;2024-03-08T04:01:43;22.00;;;13.73;;
65045;SDS011;54657;52.022;5.534;2024-03-08T04:04:09;21.85;;;12.80;;
65045;SDS011;54657;52.022;5.534;2024-03-08T04:06:34;21.10;;;13.43;;
65045;SDS011;54657;52.022;5.534;2024-03-08T04:09:00;21.80;;;13.70;;
65045;SDS011;54657;52.022;5.534;2024-03-08T04:11:25;21.90;;;13.57;;
65045;SDS011;54657;52.022;5.534;2024-03-08T04:13:51;19.83;;;13.15;;
65045;SDS011;54657;52.022;5.534;2024-03-08T04:16:17;22.08;;;14.15;;
65045;SDS011;54657;52.022;5.534;2024-03-08T04:18:44;20.48;;;14.02;;
65045;SDS011;54657;52.022;5.534;2024-03-08T04:21:09;24.23;;;13.60;;
65045;SDS011;54657;52.022;5.534;2024-03-08T04:23:36;21.27;;;13.50;;
65045;SDS011;54657;52.022;5.534;2024-03-08T04:26:02;21.60;;;13.38;;
65045;SDS011;54657;52.022;5.534;2024-03-08T04:28:29;23.92;;;13.63;;
65045;SDS011;54657;52.022;5.534;2024-03-08T04:30:54;20.27;;;13.68;;
65045;SDS011;54657;52.022;5.534;2024-03-08T04:33:20;21.95;;;13.65;;
65045;SDS011;54657;52.022;5.534;2024-03-08T04:35:46;24.92;;;14.20;;
65045;SDS011;54657;52.022;5.534;2024-03-08T04:38:12;21.05;;;13.63;;
65045;SDS011;54657;52.022;5.534;2024-03-08T04:40:38;23.30;;;14.77;;
65045;SDS011;54657;52.022;5.534;2024-03-08T04:43:04;19.58;;;13.13;;
65045;SDS011;54657;52.022;5.534;2024-03-08T04:45:30;20.15;;;13.45;;
65045;SDS011;54657;52.022;5.534;2024-03-08T04:47:55;23.90;;;14.30;;
65045;SDS011;54657;52.022;5.534;2024-03-08T04:50:21;23.85;;;13.98;;
65045;SDS011;54657;52.022;5.534;2024-03-08T04:52:47;22.00;;;14.38;;
65045;SDS011;54657;52.022;5.534;2024-03-08T04:55:13;18.85;;;12.60;;
65045;SDS011;54657;52.022;5.534;2024-03-08T04:57:38;21.92;;;14.30;;
65045;SDS011;54657;52.022;5.534;2024-03-08T05:00:04;21.17;;;14.18;;
65045;SDS011;54657;52.022;5.534;2024-03-08T05:02:36;26.87;;;15.17;;
65045;SDS011;54657;52.022;5.534;2024-03-08T05:05:04;20.52;;;13.13;;
65045;SDS011;54657;52.022;5.534;2024-03-08T05:07:31;21.73;;;13.13;;
65045;SDS011;54657;52.022;5.534;2024-03-08T05:09:58;25.45;;;13.55;;
65045;SDS011;54657;52.022;5.534;2024-03-08T05:12:24;22.17;;;13.85;;
65045;SDS011;54657;52.022;5.534;2024-03-08T05:14:49;21.70;;;14.13;;
65045;SDS011;54657;52.022;5.534;2024-03-08T05:17:15;19.38;;;12.77;;
65045;SDS011;54657;52.022;5.534;2024-03-08T05:19:42;23.00;;;14.20;;
65045;SDS011;54657;52.022;5.534;2024-03-08T05:22:08;22.58;;;14.73;;
65045;SDS011;54657;52.022;5.534;2024-03-08T05:24:33;24.55;;;14.70;;
65045;SDS011;54657;52.022;5.534;2024-03-08T05:26:59;21.98;;;14.73;;
65045;SDS011;54657;52.022;5.534;2024-03-08T05:29:25;23.33;;;14.55;;
65045;SDS011;54657;52.022;5.534;2024-03-08T05:31:51;19.83;;;14.13;;
65045;SDS011;54657;52.022;5.534;2024-03-08T05:34:17;23.02;;;13.90;;
65045;SDS011;54657;52.022;5.534;2024-03-08T05:36:44;21.55;;;13.98;;
65045;SDS011;54657;52.022;5.534;2024-03-08T05:39:14;22.00;;;13.73;;
65045;SDS011;54657;52.022;5.534;2024-03-08T05:41:40;22.48;;;14.00;;
65045;SDS011;54657;52.022;5.534;2024-03-08T05:44:07;21.42;;;13.73;;
65045;SDS011;54657;52.022;5.534;2024-03-08T05:46:36;21.48;;;13.88;;
65045;SDS011;54657;52.022;5.534;2024-03-08T05:49:02;22.23;;;14.57;;
65045;SDS011;54657;52.022;5.534;2024-03-08T05:51:30;22.05;;;14.75;;
65045;SDS011;54657;52.022;5.534;2024-03-08T05:53:56;21.90;;;13.98;;
65045;SDS011;54657;52.022;5.534;2024-03-08T05:56:23;22.15;;;13.77;;
65045;SDS011;54657;52.022;5.534;2024-03-08T05:58:49;23.65;;;14.43;;
65045;SDS011;54657;52.022;5.534;2024-03-08T06:01:15;20.77;;;14.07;;
65045;SDS011;54657;52.022;5.534;2024-03-08T06:03:41;22.88;;;13.10;;
65045;SDS011;54657;52.022;5.534;2024-03-08T06:06:12;22.85;;;14.98;;
65045;SDS011;54657;52.022;5.534;2024-03-08T06:08:38;22.35;;;14.95;;
65045;SDS011;54657;52.022;5.534;2024-03-08T06:11:03;22.73;;;14.10;;
65045;SDS011;54657;52.022;5.534;2024-03-08T06:13:30;23.17;;;13.95;;
65045;SDS011;54657;52.022;5.534;2024-03-08T06:15:56;22.25;;;14.82;;
65045;SDS011;54657;52.022;5.534;2024-03-08T06:18:22;20.40;;;14.27;;
65045;SDS011;54657;52.022;5.534;2024-03-08T06:20:48;23.38;;;15.10;;
65045;SDS011;54657;52.022;5.534;2024-03-08T06:23:13;20.40;;;13.73;;
65045;SDS011;54657;52.022;5.534;2024-03-08T06:25:43;20.35;;;14.57;;
65045;SDS011;54657;52.022;5.534;2024-03-08T06:28:11;23.42;;;14.52;;
65045;SDS011;54657;52.022;5.534;2024-03-08T06:30:36;23.90;;;14.65;;
65045;SDS011;54657;52.022;5.534;2024-03-08T06:33:02;23.63;;;14.45;;
65045;SDS011;54657;52.022;5.534;2024-03-08T06:35:28;24.88;;;14.98;;
65045;SDS011;54657;52.022;5.534;2024-03-08T06:37:56;24.73;;;14.75;;
65045;SDS011;54657;52.022;5.534;2024-03-08T06:40:22;26.95;;;14.55;;
65045;SDS011;54657;52.022;5.534;2024-03-08T06:42:48;22.27;;;14.63;;
65045;SDS011;54657;52.022;5.534;2024-03-08T06:45:14;23.98;;;14.98;;
65045;SDS011;54657;52.022;5.534;2024-03-08T06:47:44;25.30;;;14.32;;
65045;SDS011;54657;52.022;5.534;2024-03-08T06:50:10;26.52;;;14.75;;
65045;SDS011;54657;52.022;5.534;2024-03-08T06:52:36;22.42;;;14.68;;
65045;SDS011;54657;52.022;5.534;2024-03-08T06:55:02;23.40;;;15.00;;
65045;SDS011;54657;52.022;5.534;2024-03-08T06:57:30;22.27;;;14.60;;
65045;SDS011;54657;52.022;5.534;2024-03-08T06:59:56;21.88;;;14.02;;
65045;SDS011;54657;52.022;5.534;2024-03-08T07:02:22;23.95;;;15.30;;
65045;SDS011;54657;52.022;5.534;2024-03-08T07:04:49;26.75;;;15.52;;
65045;SDS011;54657;52.022;5.534;2024-03-08T07:07:15;23.23;;;14.88;;
65045;SDS011;54657;52.022;5.534;2024-03-08T07:09:41;22.67;;;14.35;;
65045;SDS011;54657;52.022;5.534;2024-03-08T07:12:10;23.50;;;15.00;;
65045;SDS011;54657;52.022;5.534;2024-03-08T07:14:38;25.77;;;15.40;;
65045;SDS011;54657;52.022;5.534;2024-03-08T07:17:05;24.00;;;15.40;;
65045;SDS011;54657;52.022;5.534;2024-03-08T07:19:33;25.75;;;16.05;;
65045;SDS011;54657;52.022;5.534;2024-03-08T07:21:59;21.65;;;14.48;;
65045;SDS011;54657;52.022;5.534;2024-03-08T07:24:25;25.30;;;15.35;;
65045;SDS011;54657;52.022;5.534;2024-03-08T07:27:11;24.08;;;15.18;;
65045;SDS011;54657;52.022;5.534;2024-03-08T07:29:37;22.95;;;14.15;;
65045;SDS011;54657;52.022;5.534;2024-03-08T07:32:02;23.90;;;14.70;;
65045;SDS011;54657;52.022;5.534;2024-03-08T07:34:44;22.75;;;15.43;;
65045;SDS011;54657;52.022;5.534;2024-03-08T07:37:09;25.92;;;15.95;;
65045;SDS011;54657;52.022;5.534;2024-03-08T07:39:38;22.85;;;15.05;;
65045;SDS011;54657;52.022;5.534;2024-03-08T07:42:04;24.55;;;14.95;;
65045;SDS011;54657;52.022;5.534;2024-03-08T07:44:30;23.05;;;15.38;;
65045;SDS011;54657;52.022;5.534;2024-03-08T07:46:56;22.90;;;14.70;;
65045;SDS011;54657;52.022;5.534;2024-03-08T07:49:22;25.92;;;15.52;;
65045;SDS011;54657;52.022;5.534;2024-03-08T07:51:48;25.42;;;14.23;;
65045;SDS011;54657;52.022;5.534;2024-03-08T07:54:14;27.20;;;16.17;;
65045;SDS011;54657;52.022;5.534;2024-03-08T07:56:40;22.15;;;15.00;;
65045;SDS011;54657;52.022;5.534;2024-03-08T07:59:05;23.05;;;15.18;;
65045;SDS011;54657;52.022;5.534;2024-03-08T08:01:31;22.85;;;15.35;;
65045;SDS011;54657;52.022;5.534;2024-03-08T08:03:58;21.80;;;15.65;;
65045;SDS011;54657;52.022;5.534;2024-03-08T08:06:24;23.10;;;15.68;;
65045;SDS011;54657;52.022;5.534;2024-03-08T08:08:50;22.98;;;16.15;;
65045;SDS011;54657;52.022;5.534;2024-03-08T08:11:16;22.90;;;15.63;;
65045;SDS011;54657;52.022;5.534;2024-03-08T08:13:41;23.45;;;16.45;;
65045;SDS011;54657;52.022;5.534;2024-03-08T08:16:08;22.90;;;15.77;;
65045;SDS011;54657;52.022;5.534;2024-03-08T08:18:34;24.85;;;15.57;;
65045;SDS011;54657;52.022;5.534;2024-03-08T08:21:01;21.38;;;15.07;;
65045;SDS011;54657;52.022;5.534;2024-03-08T08:23:27;25.70;;;14.95;;
65045;SDS011;54657;52.022;5.534;2024-03-08T08:25:54;26.65;;;15.23;;
65045;SDS011;54657;52.022;5.534;2024-03-08T08:28:20;21.05;;;14.50;;
65045;SDS011;54657;52.022;5.534;2024-03-08T08:30:46;22.67;;;14.70;;
65045;SDS011;54657;52.022;5.534;2024-03-08T08:33:11;21.60;;;15.63;;
65045;SDS011;54657;52.022;5.534;2024-03-08T08:35:38;28.02;;;16.30;;
65045;SDS011;54657;52.022;5.534;2024-03-08T08:38:06;24.15;;;15.48;;
65045;SDS011;54657;52.022;5.534;2024-03-08T08:40:32;24.50;;;14.88;;
65045;SDS011;54657;52.022;5.534;2024-03-08T08:42:59;23.40;;;16.02;;
65045;SDS011;54657;52.022;5.534;2024-03-08T08:45:25;24.92;;;15.43;;
65045;SDS011;54657;52.022;5.534;2024-03-08T08:47:50;22.45;;;15.15;;
65045;SDS011;54657;52.022;5.534;2024-03-08T08:50:16;22.77;;;14.80;;
65045;SDS011;54657;52.022;5.534;2024-03-08T08:52:48;22.38;;;14.95;;
65045;SDS011;54657;52.022;5.534;2024-03-08T08:55:14;22.63;;;15.38;;
65045;SDS011;54657;52.022;5.534;2024-03-08T08:57:42;21.02;;;14.90;;
65045;SDS011;54657;52.022;5.534;2024-03-08T09:00:09;20.92;;;14.02;;
65045;SDS011;54657;52.022;5.534;2024-03-08T09:02:39;22.83;;;15.13;;
65045;SDS011;54657;52.022;5.534;2024-03-08T09:05:06;24.85;;;15.45;;
65045;SDS011;54657;52.022;5.534;2024-03-08T09:07:34;23.58;;;15.55;;
65045;SDS011;54657;52.022;5.534;2024-03-08T09:10:00;22.65;;;15.45;;
65045;SDS011;54657;52.022;5.534;2024-03-08T09:12:26;25.30;;;15.90;;
65045;SDS011;54657;52.022;5.534;2024-03-08T09:14:52;23.92;;;15.05;;
65045;SDS011;54657;52.022;5.534;2024-03-08T09:17:17;22.55;;;15.25;;
65045;SDS011;54657;52.022;5.534;2024-03-08T09:19:46;23.58;;;15.10;;
65045;SDS011;54657;52.022;5.534;2024-03-08T09:22:12;24.02;;;15.57;;
65045;SDS011;54657;52.022;5.534;2024-03-08T09:24:38;23.55;;;15.35;;
65045;SDS011;54657;52.022;5.534;2024-03-08T09:27:04;21.83;;;14.85;;
65045;SDS011;54657;52.022;5.534;2024-03-08T09:29:29;25.50;;;14.57;;
65045;SDS011;54657;52.022;5.534;2024-03-08T09:31:55;24.27;;;15.18;;
65045;SDS011;54657;52.022;5.534;2024-03-08T09:34:20;21.48;;;13.98;;
65045;SDS011;54657;52.022;5.534;2024-03-08T09:36:46;20.50;;;13.85;;
65045;SDS011;54657;52.022;5.534;2024-03-08T09:39:12;21.73;;;14.82;;
65045;SDS011;54657;52.022;5.534;2024-03-08T09:41:44;22.42;;;14.18;;
65045;SDS011;54657;52.022;5.534;2024-03-08T09:44:13;23.17;;;14.48;;
65045;SDS011;54657;52.022;5.534;2024-03-08T09:46:39;24.23;;;14.57;;
65045;SDS011;54657;52.022;5.534;2024-03-08T09:49:05;21.88;;;15.27;;
65045;SDS011;54657;52.022;5.534;2024-03-08T09:51:33;21.65;;;15.05;;
65045;SDS011;54657;52.022;5.534;2024-03-08T09:54:03;24.60;;;15.30;;
65045;SDS011;54657;52.022;5.534;2024-03-08T09:56:29;26.08;;;14.40;;
65045;SDS011;54657;52.022;5.534;2024-03-08T09:58:58;22.38;;;15.48;;
65045;SDS011;54657;52.022;5.534;2024-03-08T10:01:36;21.42;;;15.02;;
65045;SDS011;54657;52.022;5.534;2024-03-08T10:04:04;22.63;;;15.60;;
65045;SDS011;54657;52.022;5.534;2024-03-08T10:06:29;25.80;;;15.45;;
65045;SDS011;54657;52.022;5.534;2024-03-08T10:08:56;22.95;;;14.23;;
65045;SDS011;54657;52.022;5.534;2024-03-08T10:11:22;21.17;;;14.50;;
65045;SDS011;54657;52.022;5.534;2024-03-08T10:13:49;20.00;;;13.77;;
65045;SDS011;54657;52.022;5.534;2024-03-08T10:16:15;20.75;;;14.15;;
65045;SDS011;54657;52.022;5.534;2024-03-08T10:18:42;21.17;;;14.40;;
65045;SDS011;54657;52.022;5.534;2024-03-08T10:21:08;17.95;;;14.07;;
65045;SDS011;54657;52.022;5.534;2024-03-08T10:23:37;19.73;;;13.65;;
65045;SDS011;54657;52.022;5.534;2024-03-08T10:26:14;21.67;;;15.65;;
65045;SDS011;54657;52.022;5.534;2024-03-08T10:28:50;21.77;;;14.57;;
65045;SDS011;54657;52.022;5.534;2024-03-08T10:31:18;18.33;;;13.63;;
65045;SDS011;54657;52.022;5.534;2024-03-08T10:33:44;20.38;;;13.80;;
65045;SDS011;54657;52.022;5.534;2024-03-08T10:36:14;20.40;;;13.88;;
65045;SDS011;54657;52.022;5.534;2024-03-08T10:38:41;19.60;;;14.15;;
65045;SDS011;54657;52.022;5.534;2024-03-08T10:41:11;19.50;;;13.85;;
65045;SDS011;54657;52.022;5.534;2024-03-08T10:49:31;20.08;;;13.55;;
65045;SDS011;54657;52.022;5.534;2024-03-08T10:52:04;21.13;;;14.73;;
65045;SDS011;54657;52.022;5.534;2024-03-08T10:54:33;18.50;;;13.50;;
65045;SDS011;54657;52.022;5.534;2024-03-08T10:57:03;19.67;;;12.85;;
65045;SDS011;54657;52.022;5.534;2024-03-08T10:59:31;18.33;;;12.25;;
65045;SDS011;54657;52.022;5.534;2024-03-08T11:01:58;18.60;;;12.95;;
65045;SDS011;54657;52.022;5.534;2024-03-08T11:04:24;18.65;;;12.50;;
65045;SDS011;54657;52.022;5.534;2024-03-08T11:06:50;19.40;;;12.18;;
65045;SDS011;54657;52.022;5.534;2024-03-08T11:09:37;18.83;;;13.35;;
65045;SDS011;54657;52.022;5.534;2024-03-08T11:14:54;18.77;;;13.18;;
65045;SDS011;54657;52.022;5.534;2024-03-08T11:19:57;19.52;;;12.07;;
65045;SDS011;54657;52.022;5.534;2024-03-08T11:22:31;17.02;;;12.23;;
65045;SDS011;54657;52.022;5.534;2024-03-08T11:24:58;14.88;;;10.95;;
65045;SDS011;54657;52.022;5.534;2024-03-08T11:27:29;14.98;;;11.15;;
65045;SDS011;54657;52.022;5.534;2024-03-08T11:29:59;17.02;;;11.73;;
65045;SDS011;54657;52.022;5.534;2024-03-08T11:32:34;16.67;;;11.88;;
65045;SDS011;54657;52.022;5.534;2024-03-08T11:35:01;16.00;;;11.73;;
65045;SDS011;54657;52.022;5.534;2024-03-08T11:37:30;16.70;;;11.18;;
65045;SDS011;54657;52.022;5.534;2024-03-08T11:39:59;18.38;;;11.85;;
65045;SDS011;54657;52.022;5.534;2024-03-08T11:42:27;18.40;;;12.43;;
65045;SDS011;54657;52.022;5.534;2024-03-08T11:44:52;15.85;;;11.48;;
65045;SDS011;54657;52.022;5.534;2024-03-08T11:47:18;15.13;;;10.95;;
65045;SDS011;54657;52.022;5.534;2024-03-08T11:49:45;14.73;;;11.63;;
65045;SDS011;54657;52.022;5.534;2024-03-08T11:52:13;15.73;;;12.18;;
65045;SDS011;54657;52.022;5.534;2024-03-08T11:54:40;17.35;;;11.48;;
65045;SDS011;54657;52.022;5.534;2024-03-08T11:57:07;15.90;;;10.38;;
65045;SDS011;54657;52.022;5.534;2024-03-08T11:59:34;15.38;;;11.45;;
65045;SDS011;54657;52.022;5.534;2024-03-08T12:02:04;16.52;;;12.18;;
65045;SDS011;54657;52.022;5.534;2024-03-08T12:04:31;14.57;;;10.82;;
65045;SDS011;54657;52.022;5.534;2024-03-08T12:06:59;14.93;;;11.25;;
65045;SDS011;54657;52.022;5.534;2024-03-08T12:09:33;16.13;;;10.40;;
65045;SDS011;54657;52.022;5.534;2024-03-08T12:12:02;16.55;;;11.48;;
65045;SDS011;54657;52.022;5.534;2024-03-08T12:14:32;17.50;;;11.52;;
65045;SDS011;54657;52.022;5.534;2024-03-08T12:16:58;20.02;;;11.90;;
65045;SDS011;54657;52.022;5.534;2024-03-08T12:19:26;18.65;;;11.25;;
65045;SDS011;54657;52.022;5.534;2024-03-08T12:21:53;17.00;;;11.23;;
65045;SDS011;54657;52.022;5.534;2024-03-08T12:24:19;17.70;;;13.02;;
65045;SDS011;54657;52.022;5.534;2024-03-08T12:26:46;17.15;;;11.45;;
65045;SDS011;54657;52.022;5.534;2024-03-08T12:29:19;17.92;;;12.93;;
65045;SDS011;54657;52.022;5.534;2024-03-08T12:34:18;18.42;;;11.95;;
65045;SDS011;54657;52.022;5.534;2024-03-08T12:36:44;15.65;;;11.15;;
65045;SDS011;54657;52.022;5.534;2024-03-08T12:39:12;16.02;;;11.52;;
65045;SDS011;54657;52.022;5.534;2024-03-08T12:41:41;16.23;;;11.57;;
65045;SDS011;54657;52.022;5.534;2024-03-08T12:44:06;15.85;;;12.20;;
65045;SDS011;54657;52.022;5.534;2024-03-08T12:46:36;17.25;;;11.75;;
65045;SDS011;54657;52.022;5.534;2024-03-08T12:49:06;18.20;;;11.98;;
65045;SDS011;54657;52.022;5.534;2024-03-08T12:51:33;15.00;;;10.15;;
65045;SDS011;54657;52.022;5.534;2024-03-08T12:53:58;18.75;;;12.07;;
65045;SDS011;54657;52.022;5.534;2024-03-08T12:56:33;20.38;;;11.65;;
65045;SDS011;54657;52.022;5.534;2024-03-08T12:59:02;19.25;;;12.07;;
65045;SDS011;54657;52.022;5.534;2024-03-08T13:01:29;17.20;;;11.68;;
65045;SDS011;54657;52.022;5.534;2024-03-08T13:03:57;15.73;;;11.80;;
65045;SDS011;54657;52.022;5.534;2024-03-08T13:06:23;17.13;;;11.77;;
65045;SDS011;54657;52.022;5.534;2024-03-08T13:08:50;20.27;;;11.80;;
65045;SDS011;54657;52.022;5.534;2024-03-08T13:11:20;15.50;;;11.57;;
65045;SDS011;54657;52.022;5.534;2024-03-08T13:13:46;18.45;;;13.60;;
65045;SDS011;54657;52.022;5.534;2024-03-08T13:16:12;17.55;;;12.23;;
65045;SDS011;54657;52.022;5.534;2024-03-08T13:18:42;16.40;;;12.55;;
65045;SDS011;54657;52.022;5.534;2024-03-08T13:21:08;18.52;;;12.23;;
65045;SDS011;54657;52.022;5.534;2024-03-08T13:23:35;18.17;;;12.52;;
65045;SDS011;54657;52.022;5.534;2024-03-08T13:26:04;17.98;;;12.23;;
65045;SDS011;54657;52.022;5.534;2024-03-08T13:28:31;15.85;;;11.90;;
65045;SDS011;54657;52.022;5.534;2024-03-08T13:31:01;19.48;;;12.40;;
65045;SDS011;54657;52.022;5.534;2024-03-08T13:33:28;15.05;;;12.13;;
65045;SDS011;54657;52.022;5.534;2024-03-08T13:35:53;16.90;;;12.95;;
65045;SDS011;54657;52.022;5.534;2024-03-08T13:38:19;18.20;;;13.43;;
65045;SDS011;54657;52.022;5.534;2024-03-08T13:40:45;21.67;;;13.25;;
65045;SDS011;54657;52.022;5.534;2024-03-08T13:43:14;20.77;;;13.05;;
65045;SDS011;54657;52.022;5.534;2024-03-08T13:45:39;16.95;;;12.82;;
65045;SDS011;54657;52.022;5.534;2024-03-08T13:48:06;22.52;;;14.18;;
65045;SDS011;54657;52.022;5.534;2024-03-08T13:50:31;16.90;;;12.98;;
65045;SDS011;54657;52.022;5.534;2024-03-08T13:52:57;17.83;;;12.80;;
65045;SDS011;54657;52.022;5.534;2024-03-08T13:55:23;18.60;;;12.93;;
65045;SDS011;54657;52.022;5.534;2024-03-08T13:57:52;20.08;;;13.30;;
65045;SDS011;54657;52.022;5.534;2024-03-08T14:00:18;18.17;;;13.15;;
65045;SDS011;54657;52.022;5.534;2024-03-08T14:02:47;17.52;;;13.10;;
65045;SDS011;54657;52.022;5.534;2024-03-08T14:05:13;17.42;;;13.25;;
65045;SDS011;54657;52.022;5.534;2024-03-08T14:07:41;18.98;;;14.38;;
65045;SDS011;54657;52.022;5.534;2024-03-08T14:10:06;16.48;;;12.30;;
65045;SDS011;54657;52.022;5.534;2024-03-08T14:12:34;19.00;;;13.10;;
65045;SDS011;54657;52.022;5.534;2024-03-08T14:15:00;19.30;;;12.98;;
65045;SDS011;54657;52.022;5.534;2024-03-08T14:17:26;16.08;;;12.73;;
65045;SDS011;54657;52.022;5.534;2024-03-08T14:19:53;17.95;;;12.82;;
65045;SDS011;54657;52.022;5.534;2024-03-08T14:22:19;19.23;;;13.13;;
65045;SDS011;54657;52.022;5.534;2024-03-08T14:24:45;17.70;;;13.18;;
65045;SDS011;54657;52.022;5.534;2024-03-08T14:27:10;19.05;;;13.15;;
65045;SDS011;54657;52.022;5.534;2024-03-08T14:29:37;17.13;;;12.70;;
65045;SDS011;54657;52.022;5.534;2024-03-08T14:32:03;16.55;;;12.65;;
65045;SDS011;54657;52.022;5.534;2024-03-08T14:34:31;22.10;;;12.65;;